Time;durP1;ratioP1;P1;durP2;ratioP2;P2;SDS_P1;SDS_P2;PMS_P1;PMS_P2;Temp;Humidity;BMP_temperature;BMP_pressure;BME280_temperature;BME280_humidity;BME280_pressure;Samples;Min_cycle;Max_cycle;Signal;HPM_P1;HPM_P2
2021/04/02 00:00:27;;;;;;;;;;;;;;;6.94;57.13;99551.22;1782208;80;21082;-71
2021/04/02 00:02:54;;;;;;;;;;;;;;;6.92;57.15;99547.88;1764276;80;20279;-71
2021/04/02 00:05:22;;;;;;;;;;;;;;;6.89;57.15;99543.23;1755628;80;20495;-71
2021/04/02 00:07:49;;;;;;;;;;;;;;;6.87;57.16;99548.25;1756791;80;20229;-71
2021/04/02 00:10:22;;;;;;;;;;;;;;;6.84;57.09;99540.11;1765556;80;22122;-71
2021/04/02 00:12:50;;;;;;;;;;;;;;;6.82;57.15;99535.46;1774354;80;21119;-71
2021/04/02 00:15:20;;;;;;;;;;;;;;;6.81;57.16;99542.15;1778403;80;20244;-71
2021/04/02 00:17:49;;;;;;;;;;;;;;;6.78;57.13;99536.66;1764092;80;20306;-71
2021/04/02 00:20:18;;;;;;;;;;;;;;;6.77;57.14;99539.41;1764958;80;20500;-71
2021/04/02 00:22:45;;;;;;;;;;;;;;;6.75;57.09;99535.56;1760778;80;22081;-71
2021/04/02 00:25:14;;;;;;;;;;;;;;;6.73;57.09;99535.33;1762601;80;21220;-71
2021/04/02 00:27:42;;;;;;;;;;;;;;;6.71;57.09;99528.89;1755727;80;20220;-71
2021/04/02 00:30:18;;;;;;;;;;;;;;;6.69;57.14;99532.60;1761809;80;20900;-71
2021/04/02 00:32:45;;;;;;;;;;;;;;;6.66;57.20;99531.05;1772398;80;20127;-71
2021/04/02 00:35:13;;;;;;;;;;;;;;;6.62;57.22;99528.29;1758975;80;22992;-71
2021/04/02 00:37:40;;;;;;;;;;;;;;;6.58;57.36;99531.63;1783406;80;20777;-71
2021/04/02 00:40:10;;;;;;;;;;;;;;;6.52;57.44;99528.16;1758597;80;20233;-71
2021/04/02 00:42:38;;;;;;;;;;;;;;;6.46;57.51;99530.40;1762902;80;20467;-71
2021/04/02 00:45:07;;;;;;;;;;;;;;;6.43;57.59;99528.02;1786519;79;20222;-71
2021/04/02 00:47:34;;;;;;;;;;;;;;;6.39;57.69;99526.59;1771020;80;22067;-72
2021/04/02 00:50:08;;;;;;;;;;;;;;;6.37;57.81;99519.29;1779322;80;20235;-71
2021/04/02 00:52:36;;;;;;;;;;;;;;;6.34;57.84;99511.19;1784312;80;20226;-72
2021/04/02 00:55:05;;;;;;;;;;;;;;;6.32;57.92;99515.72;1769646;80;20339;-71
2021/04/02 00:57:33;;;;;;;;;;;;;;;6.28;58.00;99508.56;1756977;80;20385;-72
2021/04/02 01:00:01;;;;;;;;;;;;;;;6.26;58.08;99507.82;1755630;80;22028;-71
2021/04/02 01:02:30;;;;;;;;;;;;;;;6.26;58.15;99506.98;1757309;80;20350;-71
2021/04/02 01:04:58;;;;;;;;;;;;;;;6.23;58.23;99499.36;1743570;80;20222;-71
2021/04/02 01:07:25;;;;;;;;;;;;;;;6.20;58.26;99492.57;1773140;80;20315;-71
2021/04/02 01:09:53;;;;;;;;;;;;;;;6.18;58.30;99491.86;1765816;80;20224;-72
2021/04/02 01:12:21;;;;;;;;;;;;;;;6.12;58.44;99487.06;1755624;80;21913;-71
2021/04/02 01:14:49;;;;;;;;;;;;;;;6.09;58.53;99485.99;1781632;80;20394;-72
2021/04/02 01:17:19;;;;;;;;;;;;;;;6.07;58.58;99480.00;1783478;80;20249;-71
2021/04/02 01:19:47;;;;;;;;;;;;;;;6.07;58.59;99473.45;1755687;80;20528;-71
2021/04/02 01:22:21;;;;;;;;;;;;;;;6.08;58.57;99467.73;1756080;80;20263;-71
2021/04/02 01:25:13;;;;;;;;;;;;;;;6.07;58.55;99464.27;1758715;80;22052;-71
2021/04/02 01:27:57;;;;;;;;;;;;;;;6.09;58.53;99466.81;1762970;80;20365;-70
2021/04/02 01:30:24;;;;;;;;;;;;;;;6.05;58.49;99464.88;1743807;80;20603;-71
2021/04/02 01:32:52;;;;;;;;;;;;;;;6.02;58.48;99455.94;1757739;80;20516;-71
2021/04/02 01:35:30;;;;;;;;;;;;;;;6.02;58.49;99452.00;1760113;80;20210;-71
2021/04/02 01:38:08;;;;;;;;;;;;;;;6.02;58.41;99448.08;1755518;81;21454;-71
2021/04/02 01:40:37;;;;;;;;;;;;;;;5.99;58.39;99445.70;1757250;80;20380;-71
2021/04/02 01:43:07;;;;;;;;;;;;;;;5.96;58.36;99444.12;1756327;80;20217;-71
2021/04/02 01:45:35;;;;;;;;;;;;;;;5.94;58.31;99439.95;1783788;80;21381;-72
2021/04/02 01:48:02;;;;;;;;;;;;;;;5.93;58.32;99435.66;1771403;80;20220;-71
2021/04/02 01:50:30;;;;;;;;;;;;;;;5.92;58.30;99431.38;1752310;82;21455;-71
2021/04/02 01:52:58;;;;;;;;;;;;;;;5.91;58.28;99429.23;1764528;81;21448;-71
2021/04/02 01:55:26;;;;;;;;;;;;;;;5.91;58.25;99427.08;1766108;80;20388;-71
2021/04/02 01:57:56;;;;;;;;;;;;;;;5.91;58.22;99428.39;1786788;80;20902;-71
2021/04/02 02:00:28;;;;;;;;;;;;;;;5.91;58.16;99428.39;1743660;80;20244;-71
2021/04/02 02:02:57;;;;;;;;;;;;;;;5.89;58.14;99417.16;1773029;80;22111;-71
2021/04/02 02:05:28;;;;;;;;;;;;;;;5.85;58.17;99411.30;1763266;80;21259;-71
2021/04/02 02:07:58;;;;;;;;;;;;;;;5.82;58.20;99404.16;1779555;80;20218;-71
2021/04/02 02:10:26;;;;;;;;;;;;;;;5.78;58.27;99399.59;1793630;80;20471;-71
2021/04/02 02:12:55;;;;;;;;;;;;;;;5.75;58.32;99396.75;1769106;80;20214;-69
2021/04/02 02:15:24;;;;;;;;;;;;;;;5.74;58.34;99392.94;1786083;80;23326;-70
2021/04/02 02:17:57;;;;;;;;;;;;;;;5.71;58.39;99387.45;1773362;80;20437;-70
2021/04/02 02:20:28;;;;;;;;;;;;;;;5.70;58.45;99393.65;1793750;79;20214;-71
2021/04/02 02:22:56;;;;;;;;;;;;;;;5.67;58.49;99386.00;1793477;79;21358;-72
2021/04/02 02:25:26;;;;;;;;;;;;;;;5.66;58.55;99390.87;1770748;80;20229;-71
2021/04/02 02:27:57;;;;;;;;;;;;;;;5.64;58.58;99398.50;1763032;80;20486;-72
2021/04/02 02:30:27;;;;;;;;;;;;;;;5.61;58.72;99394.33;1764303;78;20370;-73
2021/04/02 02:32:56;;;;;;;;;;;;;;;5.58;58.75;99381.45;1782882;80;20258;-71
2021/04/02 02:35:26;;;;;;;;;;;;;;;5.54;58.88;99380.02;1791829;79;20221;-72
2021/04/02 02:37:56;;;;;;;;;;;;;;;5.50;58.96;99375.97;1776497;78;20407;-72
2021/04/02 02:40:27;;;;;;;;;;;;;;;5.46;59.07;99381.05;1767519;80;23053;-71
2021/04/02 02:42:55;;;;;;;;;;;;;;;5.42;59.13;99389.63;1762502;80;20356;-71
2021/04/02 02:45:23;;;;;;;;;;;;;;;5.39;59.23;99378.52;1763332;80;20225;-71
2021/04/02 02:47:50;;;;;;;;;;;;;;;5.37;59.28;99381.73;1762122;81;20901;-71
2021/04/02 02:50:21;;;;;;;;;;;;;;;5.36;59.37;99373.52;1782505;80;20210;-71
2021/04/02 02:52:49;;;;;;;;;;;;;;;5.34;59.40;99373.64;1793222;80;22130;-71
2021/04/02 02:55:18;;;;;;;;;;;;;;;5.33;59.48;99355.43;1746697;81;20387;-71
2021/04/02 02:57:46;;;;;;;;;;;;;;;5.32;59.52;99355.91;1764921;80;20224;-71
2021/04/02 03:00:16;;;;;;;;;;;;;;;5.32;59.53;99357.69;1745899;80;20521;-72
2021/04/02 03:02:46;;;;;;;;;;;;;;;5.33;59.54;99355.43;1766103;80;20240;-72
2021/04/02 03:05:17;;;;;;;;;;;;;;;5.34;59.55;99350.55;1792805;80;22493;-70
2021/04/02 03:07:46;;;;;;;;;;;;;;;5.33;59.57;99351.02;1770605;80;20370;-71
2021/04/02 03:10:14;;;;;;;;;;;;;;;5.31;59.66;99342.45;1793769;80;20413;-72
2021/04/02 03:12:44;;;;;;;;;;;;;;;5.30;59.70;99338.14;1793693;78;20463;-71
2021/04/02 03:15:14;;;;;;;;;;;;;;;5.30;59.80;99341.23;1779803;80;20462;-71
2021/04/02 03:17:42;;;;;;;;;;;;;;;5.30;59.82;99342.54;1765186;80;22067;-71
2021/04/02 03:20:11;;;;;;;;;;;;;;;5.31;59.86;99341.62;1766933;78;20224;-71
2021/04/02 03:22:39;;;;;;;;;;;;;;;5.32;59.87;99344.13;1748876;81;20501;-71
2021/04/02 03:25:14;;;;;;;;;;;;;;;5.34;59.80;99337.45;1763856;80;21354;-71
2021/04/02 03:27:43;;;;;;;;;;;;;;;5.36;59.80;99336.38;1752139;80;20260;-71
2021/04/02 03:30:14;;;;;;;;;;;;;;;5.37;59.81;99337.22;1736177;81;22070;-71
2021/04/02 03:32:44;;;;;;;;;;;;;;;5.37;59.76;99343.29;1743387;81;21260;-71
2021/04/02 03:35:12;;;;;;;;;;;;;;;5.37;59.80;99340.67;1730103;81;20217;-71
2021/04/02 03:37:42;;;;;;;;;;;;;;;5.38;59.82;99331.86;1756034;80;20443;-71
2021/04/02 03:40:13;;;;;;;;;;;;;;;5.36;59.82;99328.53;1776508;80;20218;-70
2021/04/02 03:42:40;;;;;;;;;;;;;;;5.36;59.85;99328.53;1791321;78;22069;-70
2021/04/02 03:45:10;;;;;;;;;;;;;;;5.34;59.90;99323.89;1774250;80;20228;-70
2021/04/02 03:47:38;;;;;;;;;;;;;;;5.35;59.95;99318.17;1738837;81;20239;-71
2021/04/02 03:50:10;;;;;;;;;;;;;;;5.32;60.03;99313.18;1774808;80;20438;-71
2021/04/02 03:52:39;;;;;;;;;;;;;;;5.32;60.08;99313.18;1764872;80;20225;-71
2021/04/02 03:55:08;;;;;;;;;;;;;;;5.34;60.17;99312.58;1785619;80;22060;-71
2021/04/02 03:57:36;;;;;;;;;;;;;;;5.34;60.17;99299.49;1771456;80;20311;-71
2021/04/02 04:00:15;;;;;;;;;;;;;;;5.36;60.24;99301.52;1746804;80;20759;-71
2021/04/02 04:02:43;;;;;;;;;;;;;;;5.37;60.26;99301.39;1762532;81;20491;-71
2021/04/02 04:05:14;;;;;;;;;;;;;;;5.41;60.26;99304.16;1767878;80;20221;-71
2021/04/02 04:07:43;;;;;;;;;;;;;;;5.46;60.24;99303.80;1762526;81;22048;-71
2021/04/02 04:10:17;;;;;;;;;;;;;;;5.51;60.12;99306.09;1777819;80;20513;-71
2021/04/02 04:12:49;;;;;;;;;;;;;;;5.52;60.14;99294.18;1785470;80;20271;-71
2021/04/02 04:15:35;;;;;;;;;;;;;;;5.53;60.21;99288.47;1764518;80;20901;-72
2021/04/02 04:18:03;;;;;;;;;;;;;;;5.56;60.25;99289.05;1763308;80;20244;-71
2021/04/02 04:20:31;;;;;;;;;;;;;;;5.57;60.33;99291.20;1762509;81;22067;-70
2021/04/02 04:23:09;;;;;;;;;;;;;;;5.60;60.30;99293.61;1732698;80;20391;-70
2021/04/02 04:25:36;;;;;;;;;;;;;;;5.63;60.30;99298.60;1763239;80;20224;-69
2021/04/02 04:28:03;;;;;;;;;;;;;;;5.65;60.39;99295.38;1766920;80;20318;-70
2021/04/02 04:30:30;;;;;;;;;;;;;;;5.66;60.37;99300.50;1776582;78;20496;-72
2021/04/02 04:32:58;;;;;;;;;;;;;;;5.67;60.39;99294.30;1768379;80;21965;-73
2021/04/02 04:35:25;;;;;;;;;;;;;;;5.69;60.40;99292.42;1778152;80;20374;-73
2021/04/02 04:37:52;;;;;;;;;;;;;;;5.71;60.47;99292.30;1764796;79;20233;-73
2021/04/02 04:40:21;;;;;;;;;;;;;;;5.72;60.54;99288.25;1766181;80;20309;-75
2021/04/02 04:42:49;;;;;;;;;;;;;;;5.73;60.59;99288.61;1769519;80;20238;-72
2021/04/02 04:45:20;;;;;;;;;;;;;;;5.75;60.60;99285.39;1778640;78;22137;-72
2021/04/02 04:47:48;;;;;;;;;;;;;;;5.77;60.64;99277.88;1772748;80;20477;-72
2021/04/02 04:50:15;;;;;;;;;;;;;;;5.81;60.66;99280.17;1784485;80;20486;-74
2021/04/02 04:53:10;;;;;;;;;;;;;;;5.83;60.70;99278.25;1749235;80;20839;-74
2021/04/02 04:55:37;;;;;;;;;;;;;;;5.85;60.70;99263.72;1768555;80;20486;-73
2021/04/02 04:58:14;;;;;;;;;;;;;;;5.88;60.73;99257.75;1743851;80;22076;-74
2021/04/02 05:00:44;;;;;;;;;;;;;;;5.92;60.75;99261.02;1762444;80;20216;-73
2021/04/02 05:03:13;;;;;;;;;;;;;;;5.95;60.72;99251.12;1739141;81;20221;-74
2021/04/02 05:05:41;;;;;;;;;;;;;;;5.98;60.67;99248.28;1763410;80;21092;-74
2021/04/02 05:08:11;;;;;;;;;;;;;;;6.02;60.73;99247.07;1764908;80;20220;-74
2021/04/02 05:10:38;;;;;;;;;;;;;;;6.08;60.59;99255.39;1785168;80;22063;-74
2021/04/02 05:13:06;;;;;;;;;;;;;;;6.11;60.60;99247.30;1769429;80;20377;-74
2021/04/02 05:15:33;;;;;;;;;;;;;;;6.14;60.68;99247.05;1764321;81;20241;-74
2021/04/02 05:18:00;;;;;;;;;;;;;;;6.17;60.71;99246.33;1742369;81;20478;-74
2021/04/02 05:20:33;;;;;;;;;;;;;;;6.20;60.70;99246.11;1764366;81;20235;-74
2021/04/02 05:23:01;;;;;;;;;;;;;;;6.26;60.73;99246.08;1756009;80;22075;-74
2021/04/02 05:25:28;;;;;;;;;;;;;;;6.31;60.60;99239.52;1766849;80;20369;-74
2021/04/02 05:27:55;;;;;;;;;;;;;;;6.36;60.61;99231.75;1781502;80;20282;-74
2021/04/02 05:30:24;;;;;;;;;;;;;;;6.43;60.56;99239.02;1778731;79;21453;-74
2021/04/02 05:32:53;;;;;;;;;;;;;;;6.48;60.64;99236.03;1782396;80;20209;-74
2021/04/02 05:35:20;;;;;;;;;;;;;;;6.52;60.60;99230.41;1773414;80;22512;-74
2021/04/02 05:37:47;;;;;;;;;;;;;;;6.55;60.62;99224.90;1758695;81;20359;-73
2021/04/02 05:40:17;;;;;;;;;;;;;;;6.59;60.58;99226.81;1740035;81;20230;-73
2021/04/02 05:43:00;;;;;;;;;;;;;;;6.63;60.56;99218.20;1746409;81;20470;-75
2021/04/02 05:45:29;;;;;;;;;;;;;;;6.66;60.56;99216.19;1715365;82;20235;-74
2021/04/02 05:48:01;;;;;;;;;;;;;;;6.68;60.56;99212.95;1758959;80;22956;-75
2021/04/02 05:50:30;;;;;;;;;;;;;;;6.72;60.52;99211.72;1746222;80;20302;-75
2021/04/02 05:53:04;;;;;;;;;;;;;;;6.74;60.56;99208.48;1792103;79;20231;-75
2021/04/02 05:55:34;;;;;;;;;;;;;;;6.79;60.65;99213.38;1785599;80;20457;-75
2021/04/02 05:58:03;;;;;;;;;;;;;;;6.83;60.63;99218.72;1765600;80;20217;-75
2021/04/02 06:00:34;;;;;;;;;;;;;;;6.86;60.75;99207.50;1789469;79;22002;-75
2021/04/02 06:03:04;;;;;;;;;;;;;;;6.92;60.63;99204.00;1755371;80;20218;-75
2021/04/02 06:05:33;;;;;;;;;;;;;;;6.97;60.64;99203.16;1783878;80;20214;-75
2021/04/02 06:08:04;;;;;;;;;;;;;;;7.02;60.53;99198.34;1778747;80;21234;-76
2021/04/02 06:10:31;;;;;;;;;;;;;;;7.05;60.59;99195.00;1750666;81;20249;-74
2021/04/02 06:12:58;;;;;;;;;;;;;;;7.10;60.60;99205.93;1744014;81;22067;-76
2021/04/02 06:15:26;;;;;;;;;;;;;;;7.16;60.51;99209.84;1743228;81;20383;-75
2021/04/02 06:18:01;;;;;;;;;;;;;;;7.22;60.48;99214.56;1742644;81;20210;-77
2021/04/02 06:20:32;;;;;;;;;;;;;;;7.25;60.47;99207.77;1743388;81;20439;-77
2021/04/02 06:23:05;;;;;;;;;;;;;;;7.30;60.44;99202.11;1742815;82;20146;-75
2021/04/02 06:25:34;;;;;;;;;;;;;;;7.33;60.48;99203.98;1743345;81;22084;-75
2021/04/02 06:28:11;;;;;;;;;;;;;;;7.36;60.57;99206.38;1743376;81;20430;-75
2021/04/02 06:30:41;;;;;;;;;;;;;;;7.41;60.44;99206.80;1743260;81;20223;-75
2021/04/02 06:33:09;;;;;;;;;;;;;;;7.48;60.31;99218.11;1743196;81;20464;-76
2021/04/02 06:35:42;;;;;;;;;;;;;;;7.54;60.22;99222.86;1742850;81;20222;-75
2021/04/02 06:38:09;;;;;;;;;;;;;;;7.57;60.08;99211.59;1743369;81;23063;-74
2021/04/02 06:40:37;;;;;;;;;;;;;;;7.60;60.05;99217.06;1743378;81;21217;-75
2021/04/02 06:43:04;;;;;;;;;;;;;;;7.64;60.03;99214.05;1745514;81;20324;-75
2021/04/02 06:45:31;;;;;;;;;;;;;;;7.72;59.92;99227.38;1747719;81;20496;-75
2021/04/02 06:48:11;;;;;;;;;;;;;;;7.79;59.88;99217.14;1744351;81;20207;-75
2021/04/02 06:50:39;;;;;;;;;;;;;;;7.85;59.61;99212.69;1758437;80;20407;-75
2021/04/02 06:53:07;;;;;;;;;;;;;;;7.95;59.46;99207.45;1775595;80;20219;-75
2021/04/02 06:55:34;;;;;;;;;;;;;;;8.01;59.20;99210.88;1765065;80;20224;-74
2021/04/02 06:58:06;;;;;;;;;;;;;;;8.08;59.10;99206.72;1754659;80;20483;-76
2021/04/02 07:00:35;;;;;;;;;;;;;;;8.16;58.98;99208.69;1769721;80;20228;-76
2021/04/02 07:03:03;;;;;;;;;;;;;;;8.26;58.80;99208.22;1761695;80;22026;-76
2021/04/02 07:05:30;;;;;;;;;;;;;;;8.35;58.47;99204.81;1775962;80;20446;-75
2021/04/02 07:08:04;;;;;;;;;;;;;;;8.45;58.16;99200.87;1744621;80;20221;-76
2021/04/02 07:10:45;;;;;;;;;;;;;;;8.58;57.98;99192.22;1845986;76;20170;-76
2021/04/02 07:13:12;;;;;;;;;;;;;;;8.62;57.64;99195.42;1818001;79;20490;-74
2021/04/02 07:15:40;;;;;;;;;;;;;;;8.70;57.51;99188.99;1812495;78;22021;-75
2021/04/02 07:18:09;;;;;;;;;;;;;;;8.79;57.20;99186.84;1786383;79;20355;-74
2021/04/02 07:20:37;;;;;;;;;;;;;;;8.86;56.73;99197.97;1798643;77;20228;-75
2021/04/02 07:23:04;;;;;;;;;;;;;;;8.92;56.65;99195.28;1787873;79;20222;-76
2021/04/02 07:25:31;;;;;;;;;;;;;;;9.02;56.74;99196.59;1799676;79;20242;-76
2021/04/02 07:27:59;;;;;;;;;;;;;;;9.13;56.36;99205.16;1771920;79;23585;-76
2021/04/02 07:30:29;;;;;;;;;;;;;;;9.24;55.92;99196.75;1783311;79;20299;-75
2021/04/02 07:33:01;;;;;;;;;;;;;;;9.33;55.41;99184.04;1792764;79;20270;-76
2021/04/02 07:35:29;;;;;;;;;;;;;;;9.43;55.30;99188.30;1803358;79;21118;-74
2021/04/02 07:37:58;;;;;;;;;;;;;;;9.56;55.20;99181.91;1784735;79;20237;-77
2021/04/02 07:40:28;;;;;;;;;;;;;;;9.69;54.76;99185.86;1775959;79;22977;-74
2021/04/02 07:42:57;;;;;;;;;;;;;;;9.79;54.43;99178.40;1812044;77;20341;-73
2021/04/02 07:45:34;;;;;;;;;;;;;;;9.85;54.21;99186.56;1807214;77;20281;-74
2021/04/02 07:48:15;;;;;;;;;;;;;;;9.89;53.88;99189.73;1745950;80;20242;-74
2021/04/02 07:50:47;;;;;;;;;;;;;;;9.89;53.68;99183.14;1801410;78;20223;-73
2021/04/02 07:53:26;;;;;;;;;;;;;;;9.86;53.25;99196.14;1765812;80;22773;-72
2021/04/02 07:56:12;;;;;;;;;;;;;;;9.82;53.38;99217.66;1783034;79;20277;-75
2021/04/02 07:58:52;;;;;;;;;;;;;;;9.78;53.12;99222.89;1802068;77;20730;-72
2021/04/02 08:01:21;;;;;;;;;;;;;;;9.71;53.63;99234.00;1816562;79;20264;-73
2021/04/02 08:03:49;;;;;;;;;;;;;;;9.69;53.78;99224.58;1815512;77;20566;-75
2021/04/02 08:06:37;;;;;;;;;;;;;;;9.68;53.81;99222.44;1801046;78;22370;-72
2021/04/02 08:09:07;;;;;;;;;;;;;;;9.68;53.71;99227.70;1792680;78;20338;-71
2021/04/02 08:11:39;;;;;;;;;;;;;;;9.70;53.64;99215.20;1806416;79;20740;-73
2021/04/02 08:14:14;;;;;;;;;;;;;;;9.73;53.87;99212.27;1797478;78;20909;-74
2021/04/02 08:16:54;;;;;;;;;;;;;;;9.79;53.83;99214.00;1803498;78;20266;-74
2021/04/02 08:19:27;;;;;;;;;;;;;;;9.85;53.75;99204.20;1774471;79;23023;-74
2021/04/02 08:22:02;;;;;;;;;;;;;;;9.92;53.44;99207.41;1793570;79;20385;-75
2021/04/02 08:24:35;;;;;;;;;;;;;;;9.98;53.08;99197.59;1789343;79;20273;-74
2021/04/02 08:27:04;;;;;;;;;;;;;;;10.03;53.04;99203.25;1801770;79;21113;-74
2021/04/02 08:29:32;;;;;;;;;;;;;;;10.12;52.91;99200.70;1811810;77;20240;-73
2021/04/02 08:32:03;;;;;;;;;;;;;;;10.19;53.10;99202.62;1802293;78;22063;-74
2021/04/02 08:34:32;;;;;;;;;;;;;;;10.26;52.95;99213.45;1783522;80;20401;-74
2021/04/02 08:37:01;;;;;;;;;;;;;;;10.28;53.42;99194.34;1783896;80;20293;-73
2021/04/02 08:39:29;;;;;;;;;;;;;;;10.34;53.24;99193.75;1785975;79;21247;-73
2021/04/02 08:42:02;;;;;;;;;;;;;;;10.38;53.07;99196.42;1788131;79;20245;-73
2021/04/02 08:44:32;;;;;;;;;;;;;;;10.44;52.68;99191.05;1789113;79;24399;-74
2021/04/02 08:47:00;;;;;;;;;;;;;;;10.48;52.58;99193.72;1805225;77;21275;-75
2021/04/02 08:49:40;;;;;;;;;;;;;;;10.54;52.58;99187.84;1778187;79;20277;-74
2021/04/02 08:52:14;;;;;;;;;;;;;;;10.61;52.58;99186.23;1782547;79;20275;-74
2021/04/02 08:54:43;;;;;;;;;;;;;;;10.77;52.43;99189.03;1800605;79;20247;-74
2021/04/02 08:57:11;;;;;;;;;;;;;;;10.93;52.65;99177.78;1805911;79;22117;-75
2021/04/02 08:59:40;;;;;;;;;;;;;;;11.15;51.71;99176.45;1797069;77;21763;-74
2021/04/02 09:02:08;;;;;;;;;;;;;;;11.31;51.12;99173.10;1802129;79;20224;-74
2021/04/02 09:04:35;;;;;;;;;;;;;;;11.42;51.37;99172.34;1800800;79;20239;-74
2021/04/02 09:07:02;;;;;;;;;;;;;;;11.56;51.04;99170.09;1812962;79;20227;-75
2021/04/02 09:09:30;;;;;;;;;;;;;;;11.71;50.72;99166.70;1774732;78;22803;-74
2021/04/02 09:12:10;;;;;;;;;;;;;;;11.80;50.42;99160.16;1822636;78;20366;-75
2021/04/02 09:14:46;;;;;;;;;;;;;;;11.87;50.19;99153.22;1812288;78;20254;-75
2021/04/02 09:17:15;;;;;;;;;;;;;;;11.95;50.22;99155.41;1790619;78;20247;-74
2021/04/02 09:19:42;;;;;;;;;;;;;;;12.07;49.95;99155.14;1788177;78;20259;-74
2021/04/02 09:22:11;;;;;;;;;;;;;;;12.16;49.87;99144.88;1745277;80;21895;-75
2021/04/02 09:24:39;;;;;;;;;;;;;;;12.25;49.73;99141.26;1748841;80;20222;-76
2021/04/02 09:27:11;;;;;;;;;;;;;;;12.37;49.27;99145.77;1759518;80;20213;-75
2021/04/02 09:29:38;;;;;;;;;;;;;;;12.43;49.07;99137.16;1765472;80;20246;-74
2021/04/02 09:32:07;;;;;;;;;;;;;;;12.47;49.09;99138.00;1753050;80;20243;-74
2021/04/02 09:34:34;;;;;;;;;;;;;;;12.57;48.72;99136.52;1750656;81;21959;-74
2021/04/02 09:37:01;;;;;;;;;;;;;;;12.64;48.53;99143.30;1755931;79;21508;-73
2021/04/02 09:39:29;;;;;;;;;;;;;;;12.67;48.61;99131.06;1758631;81;20220;-73
2021/04/02 09:42:01;;;;;;;;;;;;;;;12.71;48.21;99127.08;1791427;78;20310;-74
2021/04/02 09:44:30;;;;;;;;;;;;;;;12.75;48.37;99136.37;1729530;80;20222;-75
2021/04/02 09:47:09;;;;;;;;;;;;;;;12.79;48.69;99129.73;1758590;80;22069;-73
2021/04/02 09:49:37;;;;;;;;;;;;;;;12.87;48.17;99128.41;1759148;81;20275;-73
2021/04/02 09:52:05;;;;;;;;;;;;;;;12.88;48.04;99131.38;1766640;81;20846;-73
2021/04/02 09:54:32;;;;;;;;;;;;;;;12.88;48.20;99130.89;1749253;81;20669;-73
2021/04/02 09:57:05;;;;;;;;;;;;;;;12.87;48.32;99135.03;1744012;81;20282;-73
2021/04/02 09:59:33;;;;;;;;;;;;;;;12.86;48.57;99130.73;1764577;81;22141;-75
2021/04/02 10:02:00;;;;;;;;;;;;;;;12.85;48.47;99135.70;1764020;81;20807;-76
2021/04/02 10:04:27;;;;;;;;;;;;;;;12.81;49.78;99133.86;1750421;81;20828;-74
2021/04/02 10:06:58;;;;;;;;;;;;;;;12.76;50.31;99132.72;1780223;80;20269;-77
2021/04/02 10:09:25;;;;;;;;;;;;;;;12.70;51.45;99131.55;1744377;81;20276;-77
2021/04/02 10:11:54;;;;;;;;;;;;;;;12.68;52.10;99134.05;1750948;80;22070;-77
2021/04/02 10:14:23;;;;;;;;;;;;;;;12.67;52.79;99129.74;1792426;79;20250;-75
2021/04/02 10:16:52;;;;;;;;;;;;;;;12.63;52.23;99128.39;1760284;81;20283;-77
2021/04/02 10:19:19;;;;;;;;;;;;;;;12.57;53.00;99124.11;1767500;80;20244;-79
2021/04/02 10:21:48;;;;;;;;;;;;;;;12.53;53.36;99129.88;1773280;80;20294;-77
2021/04/02 10:24:15;;;;;;;;;;;;;;;12.50;53.39;99135.02;1743951;80;21908;-77
2021/04/02 10:26:43;;;;;;;;;;;;;;;12.51;53.63;99123.92;1779527;80;20599;-77
2021/04/02 10:29:10;;;;;;;;;;;;;;;12.49;53.35;99126.75;1778090;80;20890;-79
2021/04/02 10:31:38;;;;;;;;;;;;;;;12.44;53.24;99136.16;1768421;80;21217;-77
2021/04/02 10:34:05;;;;;;;;;;;;;;;12.38;53.58;99127.07;1777586;80;20874;-78
2021/04/02 10:36:32;;;;;;;;;;;;;;;12.35;53.96;99129.20;1781633;80;22355;-77
2021/04/02 10:39:00;;;;;;;;;;;;;;;12.29;54.69;99131.52;1769995;80;20450;-76
2021/04/02 10:41:28;;;;;;;;;;;;;;;12.24;55.21;99132.98;1787559;78;20290;-73
2021/04/02 10:43:55;;;;;;;;;;;;;;;12.19;56.12;99135.31;1781776;80;20293;-76
2021/04/02 10:46:22;;;;;;;;;;;;;;;12.10;56.55;99145.05;1777057;80;20723;-75
2021/04/02 10:48:51;;;;;;;;;;;;;;;12.02;57.40;99144.52;1777289;80;22060;-74
2021/04/02 10:51:18;;;;;;;;;;;;;;;11.94;58.38;99142.34;1773961;80;20283;-73
2021/04/02 10:53:47;;;;;;;;;;;;;;;11.86;59.64;99149.75;1773641;80;20284;-74
2021/04/02 10:56:14;;;;;;;;;;;;;;;11.76;61.14;99148.52;1779033;80;20254;-72
2021/04/02 10:58:41;;;;;;;;;;;;;;;11.69;62.16;99146.20;1774559;80;20572;-74
2021/04/02 11:01:11;;;;;;;;;;;;;;;11.63;63.10;99147.32;1777482;80;22901;-74
2021/04/02 11:03:39;;;;;;;;;;;;;;;11.58;64.11;99146.48;1783824;79;21182;-73
2021/04/02 11:06:06;;;;;;;;;;;;;;;11.53;64.63;99150.58;1780628;80;20292;-74
2021/04/02 11:08:34;;;;;;;;;;;;;;;11.46;65.29;99148.55;1794093;80;20639;-74
2021/04/02 11:11:02;;;;;;;;;;;;;;;11.37;65.68;99150.81;1774428;80;20566;-72
2021/04/02 11:13:30;;;;;;;;;;;;;;;11.33;66.39;99149.48;1760750;80;22983;-73
2021/04/02 11:15:58;;;;;;;;;;;;;;;11.29;67.07;99152.58;1792567;80;20373;-73
2021/04/02 11:18:27;;;;;;;;;;;;;;;11.16;67.18;99155.16;1761852;80;20359;-73
2021/04/02 11:20:56;;;;;;;;;;;;;;;11.09;67.75;99158.56;1790558;80;21782;-76
2021/04/02 11:23:26;;;;;;;;;;;;;;;11.03;68.15;99163.16;1783277;80;20449;-76
2021/04/02 11:25:56;;;;;;;;;;;;;;;10.98;68.72;99164.10;1742353;81;21371;-75
2021/04/02 11:28:25;;;;;;;;;;;;;;;10.90;68.96;99166.19;1778053;80;20704;-76
2021/04/02 11:30:53;;;;;;;;;;;;;;;10.84;69.32;99164.17;1785805;78;20271;-74
2021/04/02 11:33:20;;;;;;;;;;;;;;;10.80;70.15;99172.05;1784165;80;20473;-77
2021/04/02 11:35:48;;;;;;;;;;;;;;;10.72;70.65;99174.16;1793317;80;20499;-75
2021/04/02 11:38:15;;;;;;;;;;;;;;;10.65;70.89;99172.27;1773029;80;23085;-76
2021/04/02 11:40:43;;;;;;;;;;;;;;;10.56;71.14;99167.39;1783361;80;20274;-74
2021/04/02 11:43:11;;;;;;;;;;;;;;;10.45;71.21;99167.63;1771743;80;20295;-73
2021/04/02 11:45:38;;;;;;;;;;;;;;;10.31;71.46;99165.83;1787423;80;21935;-74
2021/04/02 11:48:07;;;;;;;;;;;;;;;10.22;71.91;99165.39;1787407;80;20242;-73
2021/04/02 11:50:35;;;;;;;;;;;;;;;10.20;72.21;99164.69;1791311;80;21881;-73
2021/04/02 11:53:02;;;;;;;;;;;;;;;10.18;72.65;99163.19;1785669;80;21162;-74
2021/04/02 11:55:30;;;;;;;;;;;;;;;10.17;73.05;99162.36;1774772;80;20305;-71
2021/04/02 11:57:58;;;;;;;;;;;;;;;10.15;73.39;99159.05;1792033;78;20462;-76
2021/04/02 12:00:27;;;;;;;;;;;;;;;10.13;73.55;99157.52;1760797;80;20242;-74
2021/04/02 12:02:55;;;;;;;;;;;;;;;10.13;73.88;99166.25;1781990;80;21450;-73
2021/04/02 12:05:27;;;;;;;;;;;;;;;10.13;74.28;99164.94;1793786;80;20813;-73
2021/04/02 12:07:51;;;;;;;;;;;;;;;10.08;74.27;99159.78;1773783;80;20199;-73
2021/04/02 12:10:20;;;;;;;;;;;;;;;10.04;74.37;99147.39;1772541;80;20349;-73
2021/04/02 12:12:48;;;;;;;;;;;;;;;10.05;74.46;99153.00;1734042;81;20214;-73
2021/04/02 12:15:16;;;;;;;;;;;;;;;10.07;74.61;99151.53;1757987;81;22055;-73
2021/04/02 12:17:43;;;;;;;;;;;;;;;10.05;74.60;99150.36;1770652;80;20373;-72
2021/04/02 12:20:12;;;;;;;;;;;;;;;10.06;74.75;99153.34;1758069;80;20230;-74
2021/04/02 12:22:39;;;;;;;;;;;;;;;10.07;74.75;99153.67;1744184;81;20474;-73
2021/04/02 12:25:08;;;;;;;;;;;;;;;10.08;74.87;99154.51;1752318;81;20247;-74
2021/04/02 12:27:35;;;;;;;;;;;;;;;10.08;74.77;99151.38;1757965;81;21373;-76
2021/04/02 12:30:07;;;;;;;;;;;;;;;10.09;74.77;99159.62;1759751;81;20386;-74
2021/04/02 12:32:34;;;;;;;;;;;;;;;10.17;74.96;99160.21;1753926;81;20225;-74
2021/04/02 12:35:03;;;;;;;;;;;;;;;10.21;75.00;99165.52;1759417;81;20478;-75
2021/04/02 12:37:31;;;;;;;;;;;;;;;10.24;75.05;99168.74;1753759;81;20220;-75
2021/04/02 12:39:59;;;;;;;;;;;;;;;10.25;74.93;99169.57;1761532;81;22057;-74
2021/04/02 12:42:27;;;;;;;;;;;;;;;10.21;74.86;99165.52;1742885;81;20443;-74
2021/04/02 12:44:56;;;;;;;;;;;;;;;10.18;74.85;99168.47;1757609;81;20217;-76
2021/04/02 12:47:24;;;;;;;;;;;;;;;10.14;74.82;99167.95;1773203;80;21456;-74
2021/04/02 12:49:51;;;;;;;;;;;;;;;10.08;74.85;99171.16;1743990;81;20246;-73
2021/04/02 12:52:18;;;;;;;;;;;;;;;10.03;75.07;99170.77;1742883;81;21905;-73
2021/04/02 12:54:46;;;;;;;;;;;;;;;10.01;75.19;99172.72;1742702;82;20335;-73
2021/04/02 12:57:13;;;;;;;;;;;;;;;9.96;75.14;99172.35;1767955;81;20491;-74
2021/04/02 12:59:41;;;;;;;;;;;;;;;9.86;75.16;99177.67;1751807;81;21240;-74
2021/04/02 13:02:09;;;;;;;;;;;;;;;9.75;75.27;99176.06;1756386;81;20224;-74
2021/04/02 13:04:37;;;;;;;;;;;;;;;9.69;75.42;99175.31;1773330;81;21905;-74